Time;durP1;ratioP1;P1;durP2;ratioP2;P2;SDS_P1;SDS_P2;PMS_P1;PMS_P2;Temp;Humidity;BMP_temperature;BMP_pressure;BME280_temperature;BME280_humidity;BME280_pressure;Samples;Min_cycle;Max_cycle;Signal;HPM_P1;HPM_P2
2023/08/11 00:08:08;;;;;;;7.05;3.35;;;30.10;19.30;;;;;;20845950;28;20041;-57
2023/08/11 00:18:09;;;;;;;8.27;3.80;;;29.80;21.20;;;;;;20845440;28;20107;-56
2023/08/11 00:28:10;;;;;;;6.22;3.20;;;29.20;21.80;;;;;;20844218;28;20049;-57
2023/08/11 00:38:10;;;;;;;9.00;3.22;;;28.60;22.20;;;;;;20843851;28;20414;-57
2023/08/11 00:48:11;;;;;;;10.73;4.15;;;28.30;22.40;;;;;;20842928;28;20045;-56
2023/08/11 00:58:12;;;;;;;8.27;2.92;;;28.10;22.80;;;;;;20842336;28;20041;-57
2023/08/11 01:08:24;;;;;;;;;;;27.90;23.10;;;;;;20841295;28;20135;-56
2023/08/11 01:18:26;;;;;;;8.88;3.03;;;27.60;23.10;;;;;;20840776;28;20444;-58
2023/08/11 01:28:27;;;;;;;6.40;3.10;;;27.30;22.80;;;;;;20839391;28;20153;-56
2023/08/11 01:38:28;;;;;;;7.07;2.85;;;27.20;23.30;;;;;;20838048;28;20077;-57
2023/08/11 01:48:30;;;;;;;7.63;2.93;;;27.10;23.10;;;;;;20837326;28;20557;-56
2023/08/11 01:58:31;;;;;;;6.97;2.60;;;26.90;23.00;;;;;;20837542;28;20052;-57
2023/08/11 02:08:33;;;;;;;8.05;3.03;;;26.60;23.50;;;;;;20836926;28;20439;-56
2023/08/11 02:18:33;;;;;;;5.55;3.00;;;26.40;23.80;;;;;;20835031;28;20117;-57
2023/08/11 02:28:34;;;;;;;6.67;2.77;;;26.20;24.00;;;;;;20833932;28;20065;-60
2023/08/11 02:38:35;;;;;;;9.37;2.63;;;26.10;24.10;;;;;;20834381;28;20129;-56
2023/08/11 02:48:38;;;;;;;7.63;2.70;;;25.90;24.30;;;;;;20833632;28;20099;-55
2023/08/11 02:58:39;;;;;;;6.35;2.60;;;25.60;24.90;;;;;;20831783;28;20048;-57
2023/08/11 03:08:40;;;;;;;6.30;2.37;;;25.60;25.40;;;;;;20831196;28;20396;-56
2023/08/11 03:18:41;;;;;;;6.70;2.90;;;25.30;26.10;;;;;;20831877;28;20467;-56
2023/08/11 03:28:41;;;;;;;7.20;2.80;;;25.20;27.00;;;;;;20829312;28;20368;-57
2023/08/11 03:38:42;;;;;;;5.53;3.33;;;25.20;27.20;;;;;;20829018;28;20045;-56
2023/08/11 03:48:43;;;;;;;7.40;2.93;;;25.20;27.50;;;;;;20830568;28;20479;-57
2023/08/11 03:58:44;;;;;;;7.00;3.13;;;25.20;28.10;;;;;;20830073;28;20037;-56
2023/08/11 04:08:44;;;;;;;6.83;2.87;;;25.00;28.60;;;;;;20829919;28;20072;-56
2023/08/11 04:18:45;;;;;;;6.20;2.93;;;24.90;28.90;;;;;;20829187;28;20045;-56
2023/08/11 04:28:46;;;;;;;10.23;3.80;;;24.90;29.30;;;;;;20827647;28;20064;-57
2023/08/11 04:38:47;;;;;;;9.93;3.13;;;24.80;29.90;;;;;;20828590;28;20501;-56
2023/08/11 04:48:48;;;;;;;6.43;3.00;;;24.80;29.60;;;;;;20837798;28;20053;-56
2023/08/11 04:58:49;;;;;;;6.73;3.60;;;24.70;30.30;;;;;;20842496;28;20045;-56
2023/08/11 05:08:49;;;;;;;7.07;3.37;;;24.50;30.60;;;;;;20840176;28;20108;-57
2023/08/11 05:18:50;;;;;;;6.65;3.10;;;24.40;30.90;;;;;;20839724;28;20045;-57
2023/08/11 05:28:51;;;;;;;10.00;3.17;;;24.40;31.10;;;;;;20839654;28;20072;-56
2023/08/11 05:38:52;;;;;;;10.63;4.13;;;24.40;31.40;;;;;;20839806;28;20077;-57
2023/08/11 05:48:52;;;;;;;8.05;3.50;;;24.40;31.60;;;;;;20837694;28;20085;-57
2023/08/11 05:58:53;;;;;;;17.63;4.60;;;24.50;31.70;;;;;;20837899;28;20479;-56
2023/08/11 06:08:54;;;;;;;19.52;7.25;;;24.50;31.90;;;;;;20836249;28;20064;-57
2023/08/11 06:18:55;;;;;;;10.33;4.10;;;24.60;32.10;;;;;;20836019;28;20407;-56
2023/08/11 06:28:56;;;;;;;12.15;3.63;;;24.70;32.50;;;;;;20836118;28;20129;-57
2023/08/11 06:38:57;;;;;;;10.63;3.65;;;25.00;32.20;;;;;;20834719;28;20081;-57
2023/08/11 06:48:57;;;;;;;12.97;4.23;;;25.10;32.20;;;;;;20832912;28;20124;-56
2023/08/11 06:58:58;;;;;;;10.77;4.13;;;25.70;32.00;;;;;;20832623;28;20483;-56
2023/08/11 07:08:59;;;;;;;10.47;3.67;;;26.40;32.20;;;;;;20830442;28;20045;-58
2023/08/11 07:19:00;;;;;;;10.23;3.57;;;26.90;30.80;;;;;;20830693;28;20483;-56
2023/08/11 07:29:00;;;;;;;8.37;3.70;;;27.60;30.30;;;;;;20829941;28;20445;-57
2023/08/11 07:39:01;;;;;;;14.20;3.80;;;28.10;29.60;;;;;;20829075;28;20044;-57
2023/08/11 07:49:02;;;;;;;;;;;28.60;29.70;;;;;;20830067;28;20459;-56
2023/08/11 07:59:03;;;;;;;15.63;5.28;;;29.00;29.40;;;;;;20827964;28;19967;-57
2023/08/11 08:09:09;;;;;;;11.50;4.05;;;29.30;32.30;;;;;;20829077;28;20065;-57
2023/08/11 08:19:11;;;;;;;13.40;4.72;;;29.60;32.00;;;;;;20833211;28;20430;-56
2023/08/11 08:29:11;;;;;;;15.38;4.90;;;30.00;32.60;;;;;;20843067;28;20061;-57
2023/08/11 08:39:12;;;;;;;15.93;4.28;;;30.30;33.70;;;;;;20843350;28;20132;-57
2023/08/11 08:49:25;;;;;;;18.30;6.00;;;30.50;33.70;;;;;;20842424;28;20049;-57
2023/08/11 08:59:26;;;;;;;19.23;5.57;;;30.60;33.30;;;;;;20840619;28;20076;-57
2023/08/11 09:09:30;;;;;;;17.02;4.97;;;30.80;32.70;;;;;;20839650;28;20049;-56
2023/08/11 09:19:31;;;;;;;15.18;5.28;;;31.00;32.50;;;;;;20839159;28;20394;-56
2023/08/11 09:29:34;;;;;;;21.08;5.00;;;31.30;31.70;;;;;;20837206;28;20084;-56
2023/08/11 09:39:36;;;;;;;13.10;3.75;;;31.30;31.60;;;;;;20838464;28;20526;-57
2023/08/11 09:49:37;;;;;;;16.23;4.25;;;31.50;31.20;;;;;;20837636;28;20088;-57
2023/08/11 09:59:40;;;;;;;17.58;4.35;;;31.60;30.90;;;;;;20835148;28;20037;-56
2023/08/11 10:09:43;;;;;;;13.02;5.03;;;32.00;30.30;;;;;;20835555;28;20110;-57
2023/08/11 10:19:44;;;;;;;17.33;5.85;;;32.00;30.00;;;;;;20835275;28;20071;-56
2023/08/11 10:29:48;;;;;;;14.27;5.80;;;32.10;29.90;;;;;;20834360;28;20064;-56
2023/08/11 10:40:02;;;;;;;17.48;4.60;;;32.10;29.70;;;;;;20833118;28;20451;-56
2023/08/11 10:50:03;;;;;;;18.17;5.05;;;32.50;29.00;;;;;;20833442;28;20076;-55
2023/08/11 11:00:06;;;;;;;10.77;4.10;;;32.30;28.10;;;;;;20831678;28;20052;-55
2023/08/11 11:10:08;;;;;;;16.95;4.10;;;32.40;27.10;;;;;;20832220;28;20454;-56
2023/08/11 11:20:09;;;;;;;15.90;4.78;;;32.60;26.50;;;;;;20831093;28;20092;-57
2023/08/11 11:30:11;;;;;;;18.83;6.00;;;32.70;26.20;;;;;;20829738;28;20056;-56
2023/08/11 11:40:13;;;;;;;12.88;3.97;;;33.00;24.90;;;;;;20830348;28;20088;-56
2023/08/11 11:50:14;;;;;;;7.38;3.38;;;33.30;24.60;;;;;;20830247;28;20509;-56
2023/08/11 12:00:16;;;;;;;10.25;3.70;;;33.60;23.50;;;;;;20846800;28;20073;-57
2023/08/11 12:10:20;;;;;;;11.00;3.33;;;34.00;22.50;;;;;;20844536;28;20045;-57
2023/08/11 12:20:22;;;;;;;10.70;3.53;;;34.20;19.50;;;;;;20844303;28;20041;-57
2023/08/11 12:30:23;;;;;;;9.75;3.72;;;34.20;19.70;;;;;;20844019;28;20058;-56
2023/08/11 12:40:25;;;;;;;7.22;3.53;;;34.50;20.90;;;;;;20843776;28;20045;-57
2023/08/11 12:50:28;;;;;;;10.35;3.72;;;34.80;20.30;;;;;;20842638;28;20494;-59
2023/08/11 13:00:29;;;;;;;8.70;4.10;;;35.10;19.90;;;;;;20842305;28;20470;-57
2023/08/11 13:10:30;;;;;;;11.50;4.40;;;35.40;19.30;;;;;;20839200;28;20049;-57
2023/08/11 13:20:30;;;;;;;7.90;3.47;;;35.40;19.40;;;;;;20839913;28;20565;-57
2023/08/11 13:30:31;;;;;;;7.25;3.55;;;35.50;19.30;;;;;;20840068;28;20546;-57
2023/08/11 13:40:32;;;;;;;7.32;3.38;;;35.60;19.40;;;;;;20838053;28;20060;-57
2023/08/11 13:50:33;;;;;;;7.95;3.38;;;35.80;18.80;;;;;;20838772;28;20053;-57
2023/08/11 14:00:33;;;;;;;8.52;3.90;;;36.00;18.70;;;;;;20838293;28;20042;-57
2023/08/11 14:10:34;;;;;;;8.70;3.58;;;36.20;18.20;;;;;;20836803;28;20049;-56
2023/08/11 14:20:35;;;;;;;6.03;3.03;;;36.10;18.30;;;;;;20835989;28;20042;-57
2023/08/11 14:30:36;;;;;;;6.22;3.22;;;36.10;18.60;;;;;;20835427;28;20069;-58
2023/08/11 14:40:37;;;;;;;6.35;3.03;;;36.50;17.80;;;;;;20834231;28;20059;-57
2023/08/11 14:50:38;;;;;;;5.90;3.15;;;36.60;17.90;;;;;;20832780;28;20045;-57
2023/08/11 15:00:38;;;;;;;7.68;3.45;;;36.30;18.10;;;;;;20833525;28;20621;-57
2023/08/11 15:10:39;;;;;;;10.43;3.80;;;37.00;17.90;;;;;;20832794;28;20049;-58
2023/08/11 15:20:41;;;;;;;5.38;3.33;;;36.80;17.70;;;;;;20830810;28;20049;-57
2023/08/11 15:30:42;;;;;;;7.05;3.10;;;37.10;17.70;;;;;;20830491;28;20049;-56
2023/08/11 15:40:43;;;;;;;8.30;3.30;;;37.10;17.10;;;;;;20831246;28;20041;-57
2023/08/11 15:50:44;;;;;;;5.93;2.88;;;37.00;17.40;;;;;;20830551;28;20041;-57
2023/08/11 16:00:44;;;;;;;7.20;2.60;;;37.10;17.30;;;;;;20830168;28;20064;-57
2023/08/11 16:10:45;;;;;;;7.20;3.38;;;36.90;17.50;;;;;;20830371;28;20049;-57
2023/08/11 16:20:46;;;;;;;5.88;3.05;;;37.00;17.10;;;;;;20829126;28;20045;-56
2023/08/11 16:30:47;;;;;;;6.03;2.80;;;37.10;17.00;;;;;;20827957;28;20057;-56
2023/08/11 16:40:48;;;;;;;7.07;3.35;;;37.30;17.00;;;;;;20832919;28;20512;-57
2023/08/11 16:50:49;;;;;;;6.03;3.42;;;37.30;17.30;;;;;;20843504;28;20076;-57
2023/08/11 17:00:54;;;;;;;5.13;3.33;;;37.20;17.00;;;;;;20842956;28;20041;-57
2023/08/11 17:10:55;;;;;;;6.00;2.70;;;37.20;16.90;;;;;;20842295;28;20045;-57
2023/08/11 17:20:55;;;;;;;8.10;2.85;;;37.10;16.90;;;;;;20841203;28;20085;-58
2023/08/11 17:30:56;;;;;;;6.20;2.80;;;37.00;17.20;;;;;;20839133;28;20387;-58
2023/08/11 17:40:57;;;;;;;3.00;2.30;;;36.90;16.90;;;;;;20839523;28;20042;-58
2023/08/11 17:50:58;;;;;;;6.70;3.25;;;36.90;17.20;;;;;;20837062;28;20402;-58
2023/08/11 18:00:59;;;;;;;4.95;2.70;;;36.90;17.30;;;;;;20836718;28;20483;-58
2023/08/11 18:10:59;;;;;;;4.57;2.47;;;36.70;17.30;;;;;;20837384;28;20432;-58
2023/08/11 18:21:00;;;;;;;6.28;2.35;;;36.60;17.30;;;;;;20834938;28;20082;-58
2023/08/11 18:31:01;;;;;;;5.53;2.85;;;36.30;17.40;;;;;;20836432;28;20096;-58
2023/08/11 18:41:02;;;;;;;5.53;3.33;;;36.10;17.60;;;;;;20834401;28;20095;-58
2023/08/11 18:51:03;;;;;;;7.28;3.83;;;36.00;17.80;;;;;;20834297;28;20063;-58
2023/08/11 19:01:05;;;;;;;8.53;4.07;;;35.80;18.40;;;;;;20832434;28;20171;-57
2023/08/11 19:11:06;;;;;;;6.78;4.30;;;35.50;18.40;;;;;;20832724;28;20752;-59
2023/08/11 19:21:07;;;;;;;13.32;4.68;;;35.30;18.90;;;;;;20832088;28;20037;-57
2023/08/11 19:31:07;;;;;;;13.55;3.90;;;35.00;19.30;;;;;;20830816;28;20092;-58
2023/08/11 19:41:09;;;;;;;8.38;4.15;;;34.80;19.70;;;;;;20830997;28;20041;-58
2023/08/11 19:51:10;;;;;;;8.50;4.85;;;34.60;19.90;;;;;;20829026;28;20041;-57
2023/08/11 20:01:12;;;;;;;12.13;5.10;;;34.40;20.00;;;;;;20830342;28;20399;-58
2023/08/11 20:11:13;;;;;;;9.55;5.63;;;34.10;20.30;;;;;;20830015;28;20046;-58
2023/08/11 20:21:13;;;;;;;9.95;5.13;;;33.70;20.80;;;;;;20845256;28;20500;-58
2023/08/11 20:31:14;;;;;;;8.70;4.10;;;33.60;21.10;;;;;;20844040;28;20056;-57
2023/08/11 20:41:15;;;;;;;6.82;4.80;;;33.60;20.50;;;;;;20842888;28;20045;-58
2023/08/11 20:51:16;;;;;;;9.85;4.85;;;33.60;20.40;;;;;;20843625;28;20498;-56
2023/08/11 21:01:17;;;;;;;6.78;4.47;;;33.40;20.90;;;;;;20842582;28;20041;-56
2023/08/11 21:11:18;;;;;;;12.27;6.18;;;33.30;21.20;;;;;;20841915;28;20046;-57
2023/08/11 21:21:18;;;;;;;6.32;4.07;;;32.90;22.00;;;;;;20840043;28;20055;-57
2023/08/11 21:31:19;;;;;;;7.78;4.35;;;32.90;21.50;;;;;;20838686;28;20511;-57
2023/08/11 21:41:20;;;;;;;8.63;4.63;;;32.60;22.00;;;;;;20839784;28;20555;-57
2023/08/11 21:51:21;;;;;;;7.38;5.40;;;32.30;22.70;;;;;;20839252;28;20076;-58
2023/08/11 22:01:21;;;;;;;8.15;4.13;;;32.30;22.70;;;;;;20837920;28;20092;-56
2023/08/11 22:11:22;;;;;;;6.50;3.45;;;32.20;22.60;;;;;;20837949;28;20069;-57
2023/08/11 22:21:23;;;;;;;5.70;3.20;;;32.10;22.50;;;;;;20837303;28;20049;-56
2023/08/11 22:31:24;;;;;;;9.07;3.97;;;31.90;23.10;;;;;;20835505;28;20107;-56
2023/08/11 22:41:25;;;;;;;4.95;3.58;;;31.60;23.90;;;;;;20832629;28;20101;-56
2023/08/11 22:51:26;;;;;;;5.47;3.80;;;31.40;23.70;;;;;;20834044;28;20049;-56
2023/08/11 23:01:27;;;;;;;6.15;3.17;;;31.30;23.80;;;;;;20833037;28;20132;-58
2023/08/11 23:11:27;;;;;;;5.90;3.63;;;31.10;23.60;;;;;;20831788;28;20073;-57
2023/08/11 23:21:29;;;;;;;7.90;3.88;;;31.00;24.00;;;;;;20832226;28;20050;-57
2023/08/11 23:31:30;;;;;;;8.15;3.58;;;30.80;25.10;;;;;;20830650;28;20057;-57
2023/08/11 23:41:30;;;;;;;7.93;3.90;;;30.30;25.30;;;;;;20831242;28;20509;-57
2023/08/11 23:51:33;;;;;;;6.25;3.40;;;30.10;25.80;;;;;;20830485;28;20079;-57
